KVGT/VGT METAR and TAF weather

Enter ICAO airport designator
Station Type Date Time Source
KVGT METAR 2021/03/05 00:53 UTC NOAA

KVGT 050053Z 10007KT 10SM CLR 19/M04 A3016 RMK AO2 SLP227 T01941039


Station Type Date Time Source
KVGT Decoded METAR 2021/03/05 00:53 UTC NOAA

NORTH LAS VEGAS, NV, United States (KVGT) 36-12N 115-11W
Mar 04, 2021 - 07:53 PM EST / 2021.03.05 0053 UTC
Wind: from the E (100 degrees) at 8 MPH (7 KT):0
Visibility: 10 mile(s):0
Sky conditions: clear
Temperature: 66.9 F (19.4 C)
Dew Point: 25.0 F (-3.9 C)
Relative Humidity: 20%
Pressure (altimeter): 30.16 in. Hg (1021 hPa)
ob: KVGT 050053Z 10007KT 10SM CLR 19/M04 A3016 RMK AO2 SLP227 T01941039
cycle: 1

Station Type Date Time Source
KVGT TAF 2021/03/04 18:22 UTC NOAA

TAF KVGT 041720Z 0418/0518 34006KT P6SM SKC
FM041900 12006KT P6SM SKC
FM050300 31005KT P6SM SKC
FM051700 12005KT P6SM SKC

Example: see airport list